Airfield :
LOGIN :

Register | Disclaimer

   EN    FR    IT 

 










Legend :    VFR   Marginal VFR   IFR   Intensive IFR   Very Intensive IFR
Visi :
Ceiling :
>= 8 km
>= 3000ft
5 to 8 km
1000 to 3000 ft
1500m to 5 km
500 to 1000 ft
800 to 1500m
200 to 500 ft
< 800m
< 200 ft
Symbols :   Thunderstorms  Fog  Heavy snow  Heavy precipitations  Wind > 20 kt
SIGMETs :     Misc.  Thunderstorms  Icing  Turbulence  Mountain Waves  Volcanic Ashes






- Airport Elevation : 82 ft
- IATA code : ALG


DAAG - Alger Houari Boumedienne

CURRENT METAR :
  • 260000Z 22003KT 190V260 9999 FEW026 25/17 Q1011

EXPIRED METARs :
  • 252330Z 24005KT 9999 FEW026 SCT200 26/17 Q1011
  • 252300Z 25007KT 9999 FEW026 SCT200 26/16 Q1012
  • 252230Z 21004KT 9999 FEW026 FEW030CB SCT080 25/17 Q1011
  • 252200Z 11003KT 9999 FEW026 FEW030CB SCT080 25/19 Q1011
  • 252130Z VRB01KT 9999 FEW026 FEW030CB SCT080 26/18 Q1011

TAF TAF DAAG
Valid from the 26 at 00:00 until the 27 at 00:00 UTC


252300Z 2600/2624 VRB02KT 9999 FEW026 SCT080
TEMPO 2600/2608 FEW030CB
PROB30
TEMPO 2606/2611 VRB15G25KT 4000 -TSRA FEW026CB
BECMG 2609/2612 04012KT
TEMPO 2611/2621 FEW026CB
PROB30
TEMPO 2616/2620 04015G25KT 4000 -TSRA FEW026CB
BECMG 2618/2621 VRB02KT



MET'MAP, your aeronautical weather chart ! - Copyright ORBIFLY December 2007 - Disclaimer

ORBIFLY MET'MAP TEAM :

Programming & Development : Alexandra Zaïnal
Concept & original design : Baudouin d'Aumeries
Assistance for programming : Marc-Olivier Méhu
Technical & hardware support : Manuel Goepfert

Contact : metmap@orbifly.com




SOURCES & CREDITS :

   NOAA